createdAt,value
2019-06-07T00:00:43.215Z,9.89
2019-06-07T00:01:43.131Z,9.83
2019-06-07T00:02:43.144Z,9.93
2019-06-07T00:03:43.089Z,9.73
2019-06-07T00:04:43.061Z,9.75
2019-06-07T00:05:43.049Z,9.79
2019-06-07T00:06:43.025Z,9.79
2019-06-07T00:07:43.004Z,9.79
2019-06-07T00:08:42.978Z,9.79
2019-06-07T00:09:42.961Z,9.86
2019-06-07T00:10:42.935Z,9.75
2019-06-07T00:11:42.919Z,9.82
2019-06-07T00:12:42.931Z,9.75
2019-06-07T00:13:42.877Z,9.76
2019-06-07T00:14:42.855Z,9.78
2019-06-07T00:15:42.826Z,9.75
2019-06-07T00:16:42.808Z,9.85
2019-06-07T00:17:42.792Z,9.85
2019-06-07T00:18:42.768Z,9.81
2019-06-07T00:19:42.765Z,9.82
2019-06-07T00:20:42.725Z,9.83
2019-06-07T00:22:13.783Z,9.71
2019-06-07T00:22:42.683Z,9.70
2019-06-07T00:23:42.661Z,9.64
2019-06-07T00:24:42.638Z,9.63
2019-06-07T00:25:42.624Z,9.57
2019-06-07T00:26:57.867Z,9.60
2019-06-07T00:27:42.574Z,9.53
2019-06-07T00:28:42.565Z,9.49
2019-06-07T00:29:42.538Z,9.58
2019-06-07T00:30:51.728Z,9.46
2019-06-07T00:31:42.484Z,9.52
2019-06-07T00:32:42.489Z,9.56
2019-06-07T00:33:42.452Z,9.48
2019-06-07T00:34:42.430Z,9.58
2019-06-07T00:35:42.404Z,9.60
2019-06-07T00:36:42.382Z,9.63
2019-06-07T00:37:42.363Z,9.67
2019-06-07T00:38:42.337Z,9.79
2019-06-07T00:39:42.317Z,9.78
2019-06-07T00:40:42.295Z,9.73
2019-06-07T00:41:42.272Z,9.73
2019-06-07T00:42:42.258Z,9.73
2019-06-07T00:43:42.227Z,9.81
2019-06-07T00:44:42.215Z,9.83
2019-06-07T00:45:42.195Z,9.79
2019-06-07T00:46:42.175Z,9.91
2019-06-07T00:47:42.143Z,9.88
2019-06-07T00:48:42.125Z,9.94
2019-06-07T00:49:42.121Z,9.89
2019-06-07T00:50:42.079Z,9.82
2019-06-07T00:51:50.380Z,9.78
2019-06-07T00:53:14.125Z,9.86
2019-06-07T00:53:42.019Z,9.83
2019-06-07T00:54:42.009Z,9.94
2019-06-07T00:55:41.980Z,9.97
2019-06-07T00:56:41.952Z,9.96
2019-06-07T00:57:41.939Z,9.99
2019-06-07T00:58:41.913Z,9.93
2019-06-07T00:59:41.955Z,9.89
2019-06-07T01:00:41.871Z,9.85
2019-06-07T01:01:41.846Z,9.88
2019-06-07T01:02:41.827Z,9.96
2019-06-07T01:03:41.805Z,10.03
2019-06-07T01:04:41.792Z,9.97
2019-06-07T01:05:41.773Z,9.99
2019-06-07T01:06:41.740Z,10.03
2019-06-07T01:07:41.755Z,9.82
2019-06-07T01:08:41.700Z,9.89
2019-06-07T01:09:41.679Z,9.89
2019-06-07T01:10:53.033Z,9.85
2019-06-07T01:11:41.640Z,9.85
2019-06-07T01:12:41.612Z,9.82
2019-06-07T01:13:41.592Z,9.89
2019-06-07T01:14:41.573Z,9.86
2019-06-07T01:15:41.551Z,9.88
2019-06-07T01:16:56.734Z,9.86
2019-06-07T01:18:11.961Z,9.85
2019-06-07T01:18:46.536Z,9.88
2019-06-07T01:19:41.466Z,9.83
2019-06-07T01:20:41.446Z,9.82
2019-06-07T01:21:41.441Z,9.83
2019-06-07T01:22:41.408Z,9.93
2019-06-07T01:24:07.958Z,9.79
2019-06-07T01:24:41.360Z,9.75
2019-06-07T01:25:41.397Z,9.78
2019-06-07T01:26:41.320Z,9.83
2019-06-07T01:27:41.297Z,9.88
2019-06-07T01:28:41.287Z,10.14
2019-06-07T01:29:41.271Z,9.97
2019-06-07T01:30:41.244Z,9.93
2019-06-07T01:31:41.220Z,10.09
2019-06-07T01:32:41.191Z,10.03
2019-06-07T01:33:50.898Z,9.96
2019-06-07T01:34:41.153Z,9.97
2019-06-07T01:35:41.134Z,9.99
2019-06-07T01:36:41.102Z,9.99
2019-06-07T01:37:41.087Z,9.99
2019-06-07T01:38:41.064Z,10.14
2019-06-07T01:39:41.067Z,10.01
2019-06-07T01:40:41.029Z,10.24
2019-06-07T01:41:41.000Z,10.24
2019-06-07T01:42:40.980Z,10.21
2019-06-07T01:43:40.962Z,10.26
2019-06-07T01:44:40.936Z,9.99
2019-06-07T01:45:40.918Z,9.94
2019-06-07T01:46:40.905Z,10.25
2019-06-07T01:47:40.879Z,10.01
2019-06-07T01:48:49.633Z,10.10
2019-06-07T01:49:40.870Z,10.09
2019-06-07T01:50:40.818Z,10.00
2019-06-07T01:51:40.823Z,9.99
2019-06-07T01:52:40.774Z,10.03
2019-06-07T01:53:40.748Z,9.99
2019-06-07T01:54:56.740Z,10.09
2019-06-07T01:55:40.710Z,10.06
2019-06-07T01:56:40.688Z,10.15
2019-06-07T01:57:48.105Z,9.97
2019-06-07T01:58:40.643Z,10.14
2019-06-07T01:59:40.621Z,10.06
2019-06-07T02:00:40.607Z,10.07
2019-06-07T02:01:40.583Z,10.04
2019-06-07T02:02:40.561Z,9.96
2019-06-07T02:03:40.541Z,9.97
2019-06-07T02:04:40.523Z,10.01
2019-06-07T02:05:40.495Z,9.73
2019-06-07T02:06:40.479Z,9.88
2019-06-07T02:07:40.453Z,9.83
2019-06-07T02:08:40.432Z,9.75
2019-06-07T02:09:40.415Z,9.76
2019-06-07T02:10:40.393Z,9.83
2019-06-07T02:11:40.370Z,9.61
2019-06-07T02:12:43.460Z,9.48
2019-06-07T02:13:40.330Z,9.50
2019-06-07T02:14:40.305Z,9.42
2019-06-07T02:15:40.289Z,9.45
2019-06-07T02:16:40.261Z,9.43
2019-06-07T02:17:40.246Z,9.32
2019-06-07T02:19:00.602Z,9.39
2019-06-07T02:19:40.199Z,9.38
2019-06-07T02:20:40.177Z,9.32
2019-06-07T02:21:40.154Z,9.38
2019-06-07T02:22:40.141Z,9.46
2019-06-07T02:23:40.112Z,9.32
2019-06-07T02:24:40.089Z,9.31
2019-06-07T02:25:48.707Z,9.39
2019-06-07T02:26:40.051Z,9.42
2019-06-07T02:27:40.031Z,9.45
2019-06-07T02:28:45.666Z,9.43
2019-06-07T02:29:39.990Z,9.39
2019-06-07T02:30:53.248Z,9.48
2019-06-07T02:31:40.123Z,9.40
2019-06-07T02:32:39.973Z,9.35
2019-06-07T02:33:40.537Z,9.45
2019-06-07T02:34:40.112Z,9.49
2019-06-07T02:35:41.122Z,9.58
2019-06-07T02:36:41.775Z,9.57
2019-06-07T02:37:39.820Z,9.58
2019-06-07T02:38:39.810Z,9.66
2019-06-07T02:39:41.071Z,9.66
2019-06-07T02:40:39.755Z,9.63
2019-06-07T02:41:40.548Z,9.57
2019-06-07T02:42:42.738Z,9.61
2019-06-07T02:43:39.689Z,9.58
2019-06-07T02:44:40.464Z,9.61
2019-06-07T02:45:43.511Z,9.58
2019-06-07T02:46:46.824Z,9.45
2019-06-07T02:47:39.638Z,9.58
2019-06-07T02:48:40.456Z,9.49
2019-06-07T02:49:41.676Z,9.49
2019-06-07T02:50:39.543Z,9.49
2019-06-07T02:51:41.572Z,9.46
2019-06-07T02:52:40.876Z,9.45
2019-06-07T02:53:40.444Z,9.45
2019-06-07T02:54:40.684Z,9.49
2019-06-07T02:56:33.206Z,9.43
2019-06-07T02:56:56.222Z,9.46
2019-06-07T02:57:41.625Z,9.40
2019-06-07T02:58:41.976Z,9.40
2019-06-07T03:00:02.962Z,9.48
2019-06-07T03:00:55.391Z,9.45
2019-06-07T03:01:42.242Z,9.52
2019-06-07T03:02:41.390Z,9.45
2019-06-07T03:03:40.169Z,9.46
2019-06-07T03:04:43.769Z,9.50
2019-06-07T03:05:41.000Z,9.40
2019-06-07T03:06:43.462Z,9.48
2019-06-07T03:07:44.570Z,9.45
2019-06-07T03:08:39.153Z,9.52
2019-06-07T03:09:40.005Z,9.40
2019-06-07T03:10:41.748Z,9.46
2019-06-07T03:11:39.090Z,9.48
2019-06-07T03:12:39.311Z,9.49
2019-06-07T03:13:41.201Z,9.52
2019-06-07T03:14:39.473Z,9.48
2019-06-07T03:15:45.774Z,9.39
2019-06-07T03:16:39.221Z,9.45
2019-06-07T03:17:40.830Z,9.40
2019-06-07T03:18:41.546Z,9.34
2019-06-07T03:19:39.571Z,9.39
2019-06-07T03:20:39.841Z,9.40
2019-06-07T03:21:41.677Z,9.35
2019-06-07T03:22:41.132Z,9.25
2019-06-07T03:23:39.193Z,9.30
2019-06-07T03:24:42.106Z,9.21
2019-06-07T03:25:39.339Z,9.20
2019-06-07T03:27:30.458Z,9.24
2019-06-07T03:27:48.295Z,9.23
2019-06-07T03:28:39.562Z,9.20
2019-06-07T03:29:41.152Z,9.18
2019-06-07T03:30:54.559Z,9.20
2019-06-07T03:31:45.953Z,9.23
2019-06-07T03:32:46.312Z,9.25
2019-06-07T03:33:42.693Z,9.20
2019-06-07T03:34:42.867Z,9.13
2019-06-07T03:35:40.670Z,9.12
2019-06-07T03:36:40.070Z,9.09
2019-06-07T03:37:42.620Z,9.13
2019-06-07T03:38:39.930Z,9.13
2019-06-07T03:39:40.934Z,9.16
2019-06-07T03:40:40.145Z,9.15
2019-06-07T03:41:50.231Z,9.18
2019-06-07T03:42:40.018Z,9.10
2019-06-07T03:43:40.593Z,9.18
2019-06-07T03:44:41.255Z,9.13
2019-06-07T03:45:41.370Z,9.16
2019-06-07T03:46:41.463Z,9.09
2019-06-07T03:47:41.994Z,9.20
2019-06-07T03:48:41.004Z,9.24
2019-06-07T03:49:42.114Z,9.23
2019-06-07T03:50:41.853Z,9.38
2019-06-07T03:51:40.560Z,9.38
2019-06-07T03:52:40.946Z,9.39
2019-06-07T03:53:40.723Z,9.42
2019-06-07T03:54:39.876Z,9.45
2019-06-07T03:55:41.183Z,9.48
2019-06-07T03:56:40.861Z,9.46
2019-06-07T03:58:29.517Z,9.49
2019-06-07T03:58:49.234Z,9.50
2019-06-07T03:59:41.288Z,9.56
2019-06-07T04:00:42.598Z,9.60
2019-06-07T04:01:41.061Z,9.53
2019-06-07T04:02:41.708Z,9.66
2019-06-07T04:03:46.306Z,9.68
2019-06-07T04:04:39.756Z,9.64
2019-06-07T04:05:41.235Z,9.63
2019-06-07T04:06:41.937Z,9.68
2019-06-07T04:07:43.781Z,9.73
2019-06-07T04:08:41.313Z,9.86
2019-06-07T04:09:42.486Z,9.81
2019-06-07T04:10:55.650Z,9.89
2019-06-07T04:11:39.439Z,9.88
2019-06-07T04:12:40.045Z,9.82
2019-06-07T04:13:42.562Z,9.88
2019-06-07T04:14:40.449Z,9.88
2019-06-07T04:15:39.600Z,9.88
2019-06-07T04:16:43.585Z,9.97
2019-06-07T04:17:44.547Z,10.01
2019-06-07T04:18:40.867Z,9.96
2019-06-07T04:19:42.516Z,10.00
2019-06-07T04:20:40.703Z,9.99
2019-06-07T04:21:42.138Z,10.00
2019-06-07T04:22:42.025Z,10.01
2019-06-07T04:23:44.725Z,10.06
2019-06-07T04:24:40.205Z,10.15
2019-06-07T04:25:41.831Z,10.14
2019-06-07T04:26:42.689Z,10.22
2019-06-07T04:27:39.255Z,10.22
2019-06-07T04:30:02.949Z,10.25
2019-06-07T04:30:39.555Z,10.26
2019-06-07T04:31:41.944Z,10.22
2019-06-07T04:32:40.642Z,10.22
2019-06-07T04:33:41.550Z,10.30
2019-06-07T04:34:42.030Z,10.32
2019-06-07T04:35:39.994Z,10.36
2019-06-07T04:36:47.438Z,10.46
2019-06-07T04:37:40.661Z,10.47
2019-06-07T04:38:40.563Z,10.44
2019-06-07T04:39:41.661Z,10.46
2019-06-07T04:40:39.989Z,10.40
2019-06-07T04:41:38.514Z,10.36
2019-06-07T04:42:41.846Z,10.39
2019-06-07T04:43:38.727Z,10.36
2019-06-07T04:44:40.655Z,10.32
2019-06-07T04:45:46.638Z,10.30
2019-06-07T04:46:40.799Z,10.32
2019-06-07T04:47:38.886Z,10.40
2019-06-07T04:48:41.173Z,10.42
2019-06-07T04:49:40.627Z,10.32
2019-06-07T04:50:39.986Z,10.33
2019-06-07T04:51:40.602Z,10.39
2019-06-07T04:52:42.783Z,10.43
2019-06-07T04:53:38.659Z,10.44
2019-06-07T04:54:38.554Z,10.56
2019-06-07T04:55:39.870Z,10.51
2019-06-07T04:56:40.909Z,10.58
2019-06-07T04:57:37.683Z,10.70
2019-06-07T04:58:38.298Z,10.77
2019-06-07T05:00:59.266Z,10.86
2019-06-07T05:01:39.535Z,11.02
2019-06-07T05:02:38.634Z,11.11
2019-06-07T05:03:39.401Z,11.07
2019-06-07T05:04:39.046Z,11.19
2019-06-07T05:05:39.803Z,11.24
2019-06-07T05:06:39.611Z,11.21
2019-06-07T05:07:37.831Z,11.27
2019-06-07T05:08:38.767Z,11.21
2019-06-07T05:09:39.414Z,11.10
2019-06-07T05:10:38.730Z,11.10
2019-06-07T05:11:39.416Z,10.99
2019-06-07T05:12:41.125Z,10.96
2019-06-07T05:13:38.943Z,11.07
2019-06-07T05:14:37.293Z,11.10
2019-06-07T05:15:39.003Z,11.25
2019-06-07T05:16:40.257Z,11.17
2019-06-07T05:17:37.096Z,11.34
2019-06-07T05:18:40.210Z,11.27
2019-06-07T05:19:39.141Z,11.31
2019-06-07T05:20:38.541Z,11.34
2019-06-07T05:21:54.219Z,11.31
2019-06-07T05:22:41.971Z,11.38
2019-06-07T05:24:06.550Z,11.41
2019-06-07T05:24:38.376Z,11.52
2019-06-07T05:25:38.442Z,11.54
2019-06-07T05:26:40.187Z,11.65
2019-06-07T05:27:38.673Z,11.83
2019-06-07T05:28:39.728Z,11.87
2019-06-07T05:29:37.240Z,11.89
2019-06-07T05:31:02.138Z,11.87
2019-06-07T05:31:39.599Z,11.83
2019-06-07T05:32:37.521Z,11.86
2019-06-07T05:33:38.098Z,11.82
2019-06-07T05:34:36.935Z,11.86
2019-06-07T05:35:39.748Z,11.93
2019-06-07T05:36:39.187Z,12.04
2019-06-07T05:37:38.033Z,12.15
2019-06-07T05:38:40.377Z,12.12
2019-06-07T05:39:38.383Z,12.13
2019-06-07T05:40:37.272Z,12.21
2019-06-07T05:41:37.131Z,12.26
2019-06-07T05:42:39.159Z,12.31
2019-06-07T05:43:39.281Z,12.23
2019-06-07T05:44:36.522Z,12.19
2019-06-07T05:45:39.263Z,12.29
2019-06-07T05:46:38.640Z,12.48
2019-06-07T05:47:40.344Z,12.42
2019-06-07T05:48:36.642Z,12.54
2019-06-07T05:49:39.561Z,12.60
2019-06-07T05:50:44.943Z,12.66
2019-06-07T05:51:38.055Z,12.59
2019-06-07T05:52:38.526Z,12.66
2019-06-07T05:53:38.962Z,12.52
2019-06-07T05:54:36.489Z,12.51
2019-06-07T05:55:37.681Z,12.54
2019-06-07T05:56:36.531Z,12.52
2019-06-07T05:57:38.077Z,12.52
2019-06-07T05:58:37.637Z,12.66
2019-06-07T05:59:38.254Z,12.70
2019-06-07T06:00:36.865Z,12.77
2019-06-07T06:01:45.022Z,12.81
2019-06-07T06:02:57.640Z,12.93
2019-06-07T06:03:36.601Z,13.00
2019-06-07T06:04:36.026Z,12.82
2019-06-07T06:05:41.644Z,12.85
2019-06-07T06:06:36.378Z,12.81
2019-06-07T06:07:38.740Z,12.93
2019-06-07T06:08:36.608Z,13.03
2019-06-07T06:09:36.450Z,13.18
2019-06-07T06:10:37.010Z,13.07
2019-06-07T06:11:49.276Z,13.12
2019-06-07T06:12:39.085Z,13.15
2019-06-07T06:13:36.848Z,13.21
2019-06-07T06:14:39.606Z,13.15
2019-06-07T06:15:46.328Z,13.32
2019-06-07T06:16:37.053Z,13.41
2019-06-07T06:17:37.812Z,13.41
2019-06-07T06:18:35.647Z,13.46
2019-06-07T06:19:36.807Z,13.49
2019-06-07T06:21:00.895Z,13.62
2019-06-07T06:21:36.175Z,13.56
2019-06-07T06:22:37.118Z,13.77
2019-06-07T06:23:39.002Z,13.95
2019-06-07T06:24:37.095Z,14.07
2019-06-07T06:25:37.210Z,13.96
2019-06-07T06:26:38.444Z,13.95
2019-06-07T06:28:07.778Z,13.95
2019-06-07T06:28:36.862Z,13.87
2019-06-07T06:29:38.035Z,13.94
2019-06-07T06:30:35.936Z,14.04
2019-06-07T06:31:35.170Z,14.19
2019-06-07T06:32:51.096Z,14.21
2019-06-07T06:33:35.149Z,14.28
2019-06-07T06:34:35.025Z,14.29
2019-06-07T06:35:35.001Z,14.16
2019-06-07T06:36:34.984Z,14.27
2019-06-07T06:37:34.968Z,14.46
2019-06-07T06:38:34.951Z,14.32
2019-06-07T06:39:34.939Z,14.07
2019-06-07T06:40:34.924Z,14.25
2019-06-07T06:41:46.168Z,14.61
2019-06-07T06:42:34.888Z,14.64
2019-06-07T06:43:34.862Z,14.83
2019-06-07T06:44:34.858Z,14.94
2019-06-07T06:45:34.834Z,15.03
2019-06-07T06:46:41.055Z,15.20
2019-06-07T06:47:34.798Z,15.35
2019-06-07T06:48:34.785Z,15.12
2019-06-07T06:49:34.769Z,14.98
2019-06-07T06:50:34.754Z,14.65
2019-06-07T06:51:34.734Z,14.62
2019-06-07T06:52:34.715Z,14.60
2019-06-07T06:53:34.702Z,14.71
2019-06-07T06:54:41.041Z,14.74
2019-06-07T06:55:34.696Z,14.83
2019-06-07T06:56:34.664Z,14.80
2019-06-07T06:57:34.645Z,14.81
2019-06-07T06:59:18.789Z,14.95
2019-06-07T06:59:39.149Z,14.83
2019-06-07T07:00:46.333Z,14.75
2019-06-07T07:01:34.581Z,14.62
2019-06-07T07:02:34.563Z,14.65
2019-06-07T07:03:57.240Z,14.88
2019-06-07T07:04:34.526Z,15.06
2019-06-07T07:05:34.516Z,14.87
2019-06-07T07:06:34.496Z,14.80
2019-06-07T07:07:34.484Z,14.74
2019-06-07T07:08:34.462Z,14.84
2019-06-07T07:09:34.452Z,14.81
2019-06-07T07:10:34.430Z,14.86
2019-06-07T07:11:51.879Z,14.80
2019-06-07T07:12:34.404Z,14.88
2019-06-07T07:13:34.389Z,15.03
2019-06-07T07:14:34.372Z,15.12
2019-06-07T07:15:34.384Z,15.21
2019-06-07T07:16:34.339Z,15.21
2019-06-07T07:17:50.799Z,15.02
2019-06-07T07:18:34.304Z,15.02
2019-06-07T07:19:34.383Z,15.08
2019-06-07T07:20:34.278Z,15.05
2019-06-07T07:21:34.263Z,15.05
2019-06-07T07:22:34.250Z,15.09
2019-06-07T07:23:34.235Z,15.30
2019-06-07T07:24:34.217Z,15.12
2019-06-07T07:25:34.203Z,15.15
2019-06-07T07:26:34.182Z,15.30
2019-06-07T07:27:34.166Z,15.24
2019-06-07T07:28:34.168Z,15.48
2019-06-07T07:29:34.141Z,15.28
2019-06-07T07:30:37.116Z,15.38
2019-06-07T07:31:34.106Z,15.45
2019-06-07T07:32:34.110Z,15.21
2019-06-07T07:34:21.002Z,15.28
2019-06-07T07:34:36.876Z,15.24
2019-06-07T07:35:34.059Z,15.45
2019-06-07T07:36:39.419Z,15.56
2019-06-07T07:37:34.018Z,15.85
2019-06-07T07:38:34.002Z,15.88
2019-06-07T07:39:33.991Z,16.44
2019-06-07T07:40:57.022Z,16.58
2019-06-07T07:41:33.962Z,16.50
2019-06-07T07:42:33.943Z,16.71
2019-06-07T07:43:33.933Z,16.67
2019-06-07T07:44:33.912Z,16.70
2019-06-07T07:45:33.898Z,16.62
2019-06-07T07:46:33.888Z,16.42
2019-06-07T07:47:34.030Z,16.31
2019-06-07T07:48:33.854Z,16.41
2019-06-07T07:49:33.838Z,16.56
2019-06-07T07:50:33.860Z,16.23
2019-06-07T07:51:33.809Z,16.35
2019-06-07T07:52:33.809Z,16.15
2019-06-07T07:53:48.318Z,16.25
2019-06-07T07:54:33.767Z,16.83
2019-06-07T07:55:33.748Z,17.23
2019-06-07T07:56:33.742Z,17.63
2019-06-07T07:57:33.721Z,17.43
2019-06-07T07:58:33.708Z,17.55
2019-06-07T07:59:43.975Z,17.47
2019-06-07T08:00:52.891Z,17.67
2019-06-07T08:01:33.662Z,17.81
2019-06-07T08:02:33.703Z,18.04
2019-06-07T08:03:33.637Z,18.33
2019-06-07T08:05:12.878Z,18.37
2019-06-07T08:05:42.365Z,18.24
2019-06-07T08:06:33.596Z,18.64
2019-06-07T08:07:33.581Z,18.76
2019-06-07T08:08:33.560Z,18.44
2019-06-07T08:09:33.550Z,18.34
2019-06-07T08:10:33.542Z,18.19
2019-06-07T08:11:33.519Z,18.31
2019-06-07T08:12:55.713Z,18.25
2019-06-07T08:13:33.646Z,17.84
2019-06-07T08:14:33.488Z,17.99
2019-06-07T08:15:33.477Z,18.18
2019-06-07T08:16:33.458Z,18.70
2019-06-07T08:17:33.448Z,18.64
2019-06-07T08:18:33.429Z,18.46
2019-06-07T08:19:33.420Z,18.29
2019-06-07T08:20:33.427Z,18.33
2019-06-07T08:21:33.389Z,18.06
2019-06-07T08:22:33.381Z,18.29
2019-06-07T08:23:33.368Z,18.28
2019-06-07T08:24:33.349Z,18.55
2019-06-07T08:25:33.335Z,18.87
2019-06-07T08:26:33.338Z,19.23
2019-06-07T08:27:33.317Z,19.36
2019-06-07T08:28:33.294Z,19.08
2019-06-07T08:29:44.900Z,19.20
2019-06-07T08:30:54.966Z,19.53
2019-06-07T08:31:33.265Z,20.00
2019-06-07T08:32:33.256Z,19.98
2019-06-07T08:33:33.243Z,19.87
2019-06-07T08:34:33.289Z,20.23
2019-06-07T08:36:41.795Z,20.16
2019-06-07T08:38:14.239Z,20.43
2019-06-07T08:38:47.063Z,20.74
2019-06-07T08:39:33.157Z,21.26
2019-06-07T08:40:33.145Z,21.61
2019-06-07T08:41:33.152Z,21.46
2019-06-07T08:42:38.563Z,21.64
2019-06-07T08:43:33.133Z,21.59
2019-06-07T08:44:33.101Z,21.29
2019-06-07T08:45:33.091Z,21.71
2019-06-07T08:46:33.112Z,22.23
2019-06-07T08:47:33.082Z,22.12
2019-06-07T08:48:33.056Z,22.19
2019-06-07T08:49:33.036Z,22.09
2019-06-07T08:50:33.028Z,21.99
2019-06-07T08:51:33.021Z,21.99
2019-06-07T08:52:33.008Z,22.22
2019-06-07T08:53:32.990Z,22.46
2019-06-07T08:54:32.979Z,22.14
2019-06-07T08:55:33.056Z,22.01
2019-06-07T08:56:32.970Z,22.01
2019-06-07T08:57:32.947Z,22.22
2019-06-07T08:58:32.933Z,22.10
2019-06-07T08:59:32.921Z,22.13
2019-06-07T09:00:48.348Z,22.20
2019-06-07T09:01:32.908Z,22.29
2019-06-07T09:02:32.897Z,22.59
2019-06-07T09:03:32.879Z,22.84
2019-06-07T09:04:32.876Z,22.65
2019-06-07T09:05:32.857Z,22.31
2019-06-07T09:07:32.838Z,22.14
2019-06-07T09:08:32.825Z,21.72
2019-06-07T09:09:32.803Z,22.16
2019-06-07T09:10:32.842Z,22.50
2019-06-07T09:11:32.822Z,22.35
2019-06-07T09:12:32.771Z,22.90
2019-06-07T09:13:33.349Z,22.83
2019-06-07T09:14:32.761Z,22.84
2019-06-07T09:15:32.741Z,22.99
2019-06-07T09:16:32.723Z,23.08
2019-06-07T09:17:34.214Z,23.19
2019-06-07T09:18:43.227Z,23.07
2019-06-07T09:19:32.684Z,22.96
2019-06-07T09:20:36.734Z,22.68
2019-06-07T09:21:32.707Z,22.99
2019-06-07T09:22:32.670Z,23.43
2019-06-07T09:23:32.642Z,23.57
2019-06-07T09:24:32.634Z,23.26
2019-06-07T09:25:32.619Z,22.90
2019-06-07T09:26:32.613Z,22.87
2019-06-07T09:27:32.594Z,22.50
2019-06-07T09:28:32.592Z,22.75
2019-06-07T09:29:32.580Z,23.34
2019-06-07T09:30:32.594Z,23.40
2019-06-07T09:31:51.157Z,23.68
2019-06-07T09:32:32.587Z,23.26
2019-06-07T09:33:32.533Z,23.02
2019-06-07T09:34:32.526Z,23.07
2019-06-07T09:35:32.517Z,22.99
2019-06-07T09:36:32.500Z,22.80
2019-06-07T09:38:04.251Z,23.22
2019-06-07T09:38:32.491Z,23.60
2019-06-07T09:39:32.481Z,24.20
2019-06-07T09:40:32.472Z,24.68
2019-06-07T09:41:46.995Z,24.71
2019-06-07T09:42:32.434Z,24.45
2019-06-07T09:44:01.951Z,24.45
2019-06-07T09:44:32.424Z,23.94
2019-06-07T09:45:32.405Z,23.89
2019-06-07T09:46:32.399Z,23.68
2019-06-07T09:47:33.251Z,23.60
2019-06-07T09:49:09.857Z,24.20
2019-06-07T09:49:33.339Z,24.22
2019-06-07T09:50:32.353Z,24.10
2019-06-07T09:51:32.355Z,24.26
2019-06-07T09:52:56.394Z,24.31
2019-06-07T09:53:32.321Z,24.17
2019-06-07T09:55:32.302Z,24.01
2019-06-07T09:56:32.287Z,24.08
2019-06-07T09:57:32.273Z,24.02
2019-06-07T09:58:51.731Z,24.42
2019-06-07T09:59:32.254Z,24.75
2019-06-07T10:00:41.030Z,24.90
2019-06-07T10:01:32.236Z,25.20
2019-06-07T10:02:32.233Z,25.07
2019-06-07T10:03:32.216Z,24.91
2019-06-07T10:04:32.224Z,24.68
2019-06-07T10:05:32.205Z,24.44
2019-06-07T10:06:32.214Z,24.52
2019-06-07T10:07:32.286Z,24.91
2019-06-07T10:11:32.152Z,25.68
2019-06-07T10:12:32.142Z,25.82
2019-06-07T10:13:32.135Z,25.54
2019-06-07T10:14:32.119Z,25.65
2019-06-07T10:15:32.119Z,25.82
2019-06-07T10:16:45.947Z,25.75
2019-06-07T10:17:32.105Z,25.94
2019-06-07T10:18:32.097Z,25.99
2019-06-07T10:19:32.089Z,25.93
2019-06-07T10:20:32.079Z,26.06
2019-06-07T10:21:32.069Z,26.06
2019-06-07T10:22:32.095Z,25.69
2019-06-07T10:23:32.062Z,25.43
2019-06-07T10:24:32.059Z,25.43
2019-06-07T10:25:32.046Z,25.62
2019-06-07T10:26:32.036Z,25.59
2019-06-07T10:27:32.038Z,25.79
2019-06-07T10:28:32.043Z,25.99
2019-06-07T10:29:32.052Z,26.02
2019-06-07T10:30:32.019Z,25.86
2019-06-07T10:31:32.015Z,25.69
2019-06-07T10:32:32.053Z,25.71
2019-06-07T10:33:32.011Z,25.72
2019-06-07T10:34:31.992Z,25.79
2019-06-07T10:35:32.055Z,25.56
2019-06-07T10:36:31.982Z,25.50
2019-06-07T10:37:31.979Z,25.57
2019-06-07T10:38:31.989Z,25.47
2019-06-07T10:39:44.956Z,25.43
2019-06-07T10:40:31.969Z,25.64
2019-06-07T10:41:31.988Z,25.98
2019-06-07T10:42:31.956Z,25.99
2019-06-07T10:43:31.945Z,25.65
2019-06-07T10:44:31.942Z,25.74
2019-06-07T10:45:31.973Z,25.75
2019-06-07T10:46:31.939Z,25.94
2019-06-07T10:47:31.936Z,26.25
2019-06-07T10:48:31.936Z,26.36
2019-06-07T10:49:31.923Z,26.24
2019-06-07T10:50:31.926Z,26.18
2019-06-07T10:51:31.919Z,26.29
2019-06-07T10:52:31.914Z,25.80
2019-06-07T10:53:31.910Z,25.53
2019-06-07T10:54:31.932Z,25.53
2019-06-07T10:55:31.901Z,25.47
2019-06-07T10:56:31.904Z,25.59
2019-06-07T10:57:31.901Z,25.79
2019-06-07T10:58:31.898Z,25.61
2019-06-07T10:59:31.891Z,25.43
2019-06-07T11:00:31.894Z,25.20
2019-06-07T11:01:31.898Z,25.01
2019-06-07T11:02:31.881Z,24.76
2019-06-07T11:03:31.888Z,25.05
2019-06-07T11:04:31.878Z,24.85
2019-06-07T11:05:31.878Z,25.07
2019-06-07T11:06:31.885Z,25.31
2019-06-07T11:07:31.869Z,25.82
2019-06-07T11:08:31.868Z,25.89
2019-06-07T11:09:33.205Z,26.18
2019-06-07T11:10:31.863Z,25.94
2019-06-07T11:11:31.866Z,25.84
2019-06-07T11:12:31.864Z,25.87
2019-06-07T11:13:31.863Z,25.79
2019-06-07T11:14:31.859Z,25.75
2019-06-07T11:15:31.859Z,25.86
2019-06-07T11:16:31.854Z,25.86
2019-06-07T11:17:31.852Z,25.86
2019-06-07T11:18:31.847Z,25.65
2019-06-07T11:19:31.850Z,25.80
2019-06-07T11:20:31.866Z,25.56
2019-06-07T11:21:31.853Z,25.68
2019-06-07T11:22:31.876Z,25.56
2019-06-07T11:23:31.847Z,25.75
2019-06-07T11:24:31.843Z,25.79
2019-06-07T11:25:31.844Z,25.79
2019-06-07T11:26:31.865Z,25.77
2019-06-07T11:27:31.847Z,25.72
2019-06-07T11:28:31.844Z,25.72
2019-06-07T11:29:31.844Z,25.68
2019-06-07T11:30:31.846Z,26.06
2019-06-07T11:31:31.846Z,26.61
2019-06-07T11:32:31.841Z,26.81
2019-06-07T11:33:31.875Z,26.76
2019-06-07T11:34:31.850Z,26.62
2019-06-07T11:35:31.847Z,26.57
2019-06-07T11:36:31.847Z,26.72
2019-06-07T11:37:31.844Z,26.62
2019-06-07T11:38:31.856Z,26.54
2019-06-07T11:39:31.866Z,26.21
2019-06-07T11:40:35.512Z,26.21
2019-06-07T11:41:31.848Z,26.06
2019-06-07T11:42:31.853Z,26.24
2019-06-07T11:43:31.857Z,26.28
2019-06-07T11:44:31.854Z,26.27
2019-06-07T11:45:31.853Z,26.62
2019-06-07T11:46:31.857Z,26.55
2019-06-07T11:47:31.860Z,26.28
2019-06-07T11:48:31.857Z,26.55
2019-06-07T11:49:31.857Z,26.61
2019-06-07T11:50:31.892Z,26.74
2019-06-07T11:51:31.872Z,26.49
2019-06-07T11:52:31.868Z,26.32
2019-06-07T11:53:31.876Z,26.57
2019-06-07T11:54:31.873Z,26.62
2019-06-07T11:55:31.886Z,26.64
2019-06-07T11:56:31.869Z,26.25
2019-06-07T11:57:31.870Z,26.27
2019-06-07T11:58:31.873Z,26.50
2019-06-07T11:59:31.877Z,26.73
2019-06-07T12:00:34.214Z,26.86
2019-06-07T12:01:31.877Z,26.81
2019-06-07T12:02:31.886Z,26.76
2019-06-07T12:03:31.891Z,26.86
2019-06-07T12:04:34.935Z,26.86
2019-06-07T12:05:31.882Z,26.96
2019-06-07T12:06:31.890Z,26.95
2019-06-07T12:07:31.888Z,26.58
2019-06-07T12:08:31.889Z,26.39
2019-06-07T12:09:31.896Z,26.55
2019-06-07T12:10:42.002Z,26.64
2019-06-07T12:11:31.892Z,26.42
2019-06-07T12:12:31.892Z,26.61
2019-06-07T12:13:31.906Z,26.61
2019-06-07T12:14:31.906Z,26.91
2019-06-07T12:15:31.906Z,26.84
2019-06-07T12:16:31.907Z,26.36
2019-06-07T12:17:31.908Z,26.24
2019-06-07T12:18:31.909Z,25.77
2019-06-07T12:19:31.908Z,25.64
2019-06-07T12:20:31.910Z,25.77
2019-06-07T12:21:31.911Z,25.52
2019-06-07T12:22:31.912Z,25.31
2019-06-07T12:23:31.909Z,25.57
2019-06-07T12:24:31.912Z,25.97
2019-06-07T12:25:31.914Z,25.91
2019-06-07T12:26:31.915Z,26.27
2019-06-07T12:27:31.912Z,26.65
2019-06-07T12:28:31.907Z,26.81
2019-06-07T12:29:33.931Z,26.87
2019-06-07T12:30:31.908Z,26.77
2019-06-07T12:31:31.906Z,26.77
2019-06-07T12:32:31.927Z,26.80
2019-06-07T12:33:31.909Z,27.09
2019-06-07T12:34:31.913Z,27.16
2019-06-07T12:35:31.919Z,27.26
2019-06-07T12:36:31.916Z,27.38
2019-06-07T12:37:43.269Z,27.54
2019-06-07T12:38:31.918Z,27.57
2019-06-07T12:39:31.970Z,27.23
2019-06-07T12:40:32.519Z,27.21
2019-06-07T12:41:31.918Z,27.36
2019-06-07T12:42:31.941Z,27.51
2019-06-07T12:43:31.915Z,27.53
2019-06-07T12:44:31.919Z,27.88
2019-06-07T12:45:44.270Z,27.88
2019-06-07T12:46:31.923Z,27.61
2019-06-07T12:47:31.924Z,27.33
2019-06-07T12:48:31.930Z,27.38
2019-06-07T12:49:31.932Z,27.47
2019-06-07T12:50:42.426Z,27.88
2019-06-07T12:51:31.934Z,28.17
2019-06-07T12:52:31.954Z,28.16
2019-06-07T12:53:31.935Z,28.33
2019-06-07T12:54:31.949Z,28.04
2019-06-07T12:55:31.944Z,28.04
2019-06-07T12:56:31.965Z,28.07
2019-06-07T12:57:31.952Z,28.09
2019-06-07T12:58:36.248Z,28.19
2019-06-07T12:59:31.949Z,28.17
2019-06-07T13:00:31.951Z,27.94
2019-06-07T13:01:31.971Z,28.06
2019-06-07T13:02:31.966Z,28.14
2019-06-07T13:03:32.015Z,28.21
2019-06-07T13:04:31.958Z,28.21
2019-06-07T13:05:31.968Z,28.14
2019-06-07T13:06:31.965Z,28.23
2019-06-07T13:07:31.965Z,28.44
2019-06-07T13:08:31.975Z,28.82